sensor_id;sensor_type;location;lat;lon;timestamp;P1;durP1;ratioP1;P2;durP2;ratioP2
9420;SDS011;4749;51.398;5.466;2023-12-20T00:00:36;13.10;;;4.20;;
9420;SDS011;4749;51.398;5.466;2023-12-20T00:03:06;20.47;;;4.50;;
9420;SDS011;4749;51.398;5.466;2023-12-20T00:05:34;18.50;;;4.43;;
9420;SDS011;4749;51.398;5.466;2023-12-20T00:08:02;15.27;;;4.43;;
9420;SDS011;4749;51.398;5.466;2023-12-20T00:10:31;17.97;;;4.43;;
9420;SDS011;4749;51.398;5.466;2023-12-20T00:12:58;15.33;;;3.50;;
9420;SDS011;4749;51.398;5.466;2023-12-20T00:15:25;15.50;;;3.63;;
9420;SDS011;4749;51.398;5.466;2023-12-20T00:17:53;24.83;;;4.10;;
9420;SDS011;4749;51.398;5.466;2023-12-20T00:20:20;8.80;;;2.97;;
9420;SDS011;4749;51.398;5.466;2023-12-20T00:22:47;17.60;;;3.27;;
9420;SDS011;4749;51.398;5.466;2023-12-20T00:25:14;14.83;;;3.30;;
9420;SDS011;4749;51.398;5.466;2023-12-20T00:27:41;20.97;;;3.63;;
9420;SDS011;4749;51.398;5.466;2023-12-20T00:30:09;15.20;;;3.50;;
9420;SDS011;4749;51.398;5.466;2023-12-20T00:32:37;21.23;;;3.60;;
9420;SDS011;4749;51.398;5.466;2023-12-20T00:35:05;11.60;;;3.47;;
9420;SDS011;4749;51.398;5.466;2023-12-20T00:37:33;13.80;;;2.63;;
9420;SDS011;4749;51.398;5.466;2023-12-20T00:40:02;12.60;;;2.87;;
9420;SDS011;4749;51.398;5.466;2023-12-20T00:42:30;16.40;;;3.50;;
9420;SDS011;4749;51.398;5.466;2023-12-20T00:44:58;17.27;;;3.13;;
9420;SDS011;4749;51.398;5.466;2023-12-20T00:47:26;18.13;;;3.43;;
9420;SDS011;4749;51.398;5.466;2023-12-20T00:49:53;11.33;;;2.97;;
9420;SDS011;4749;51.398;5.466;2023-12-20T00:52:20;11.87;;;2.97;;
9420;SDS011;4749;51.398;5.466;2023-12-20T00:54:48;15.80;;;3.20;;
9420;SDS011;4749;51.398;5.466;2023-12-20T00:57:16;19.33;;;3.50;;
9420;SDS011;4749;51.398;5.466;2023-12-20T00:59:43;13.90;;;3.20;;
9420;SDS011;4749;51.398;5.466;2023-12-20T01:02:10;13.37;;;2.70;;
9420;SDS011;4749;51.398;5.466;2023-12-20T01:04:37;11.67;;;2.80;;
9420;SDS011;4749;51.398;5.466;2023-12-20T01:07:05;21.73;;;3.47;;
9420;SDS011;4749;51.398;5.466;2023-12-20T01:09:32;19.07;;;2.93;;
9420;SDS011;4749;51.398;5.466;2023-12-20T01:12:00;14.37;;;2.97;;
9420;SDS011;4749;51.398;5.466;2023-12-20T01:14:27;14.27;;;3.33;;
9420;SDS011;4749;51.398;5.466;2023-12-20T01:16:54;13.70;;;2.80;;
9420;SDS011;4749;51.398;5.466;2023-12-20T01:19:21;20.60;;;3.30;;
9420;SDS011;4749;51.398;5.466;2023-12-20T01:21:50;10.50;;;2.40;;
9420;SDS011;4749;51.398;5.466;2023-12-20T01:24:17;24.03;;;3.30;;
9420;SDS011;4749;51.398;5.466;2023-12-20T01:26:44;15.37;;;3.13;;
9420;SDS011;4749;51.398;5.466;2023-12-20T01:29:11;21.80;;;3.73;;
9420;SDS011;4749;51.398;5.466;2023-12-20T01:31:40;22.03;;;3.17;;
9420;SDS011;4749;51.398;5.466;2023-12-20T01:34:08;14.90;;;2.70;;
9420;SDS011;4749;51.398;5.466;2023-12-20T01:36:35;21.23;;;3.20;;
9420;SDS011;4749;51.398;5.466;2023-12-20T01:39:02;20.77;;;3.33;;
9420;SDS011;4749;51.398;5.466;2023-12-20T01:41:38;14.90;;;2.80;;
9420;SDS011;4749;51.398;5.466;2023-12-20T01:44:05;12.40;;;2.93;;
9420;SDS011;4749;51.398;5.466;2023-12-20T01:46:33;13.27;;;2.83;;
9420;SDS011;4749;51.398;5.466;2023-12-20T01:49:00;14.27;;;2.53;;
9420;SDS011;4749;51.398;5.466;2023-12-20T01:51:28;14.77;;;2.40;;
9420;SDS011;4749;51.398;5.466;2023-12-20T01:53:56;13.87;;;2.87;;
9420;SDS011;4749;51.398;5.466;2023-12-20T01:56:26;15.13;;;2.63;;
9420;SDS011;4749;51.398;5.466;2023-12-20T01:58:55;20.00;;;3.17;;
9420;SDS011;4749;51.398;5.466;2023-12-20T02:01:23;13.80;;;3.20;;
9420;SDS011;4749;51.398;5.466;2023-12-20T02:03:51;18.40;;;3.20;;
9420;SDS011;4749;51.398;5.466;2023-12-20T02:06:18;13.57;;;3.20;;
9420;SDS011;4749;51.398;5.466;2023-12-20T02:08:49;14.73;;;2.70;;
9420;SDS011;4749;51.398;5.466;2023-12-20T02:11:16;13.23;;;2.80;;
9420;SDS011;4749;51.398;5.466;2023-12-20T02:13:44;15.83;;;3.00;;
9420;SDS011;4749;51.398;5.466;2023-12-20T02:16:11;18.33;;;3.00;;
9420;SDS011;4749;51.398;5.466;2023-12-20T02:18:38;18.77;;;3.33;;
9420;SDS011;4749;51.398;5.466;2023-12-20T02:21:06;12.20;;;2.67;;
9420;SDS011;4749;51.398;5.466;2023-12-20T02:23:33;17.00;;;3.03;;
9420;SDS011;4749;51.398;5.466;2023-12-20T02:26:00;18.07;;;2.67;;
9420;SDS011;4749;51.398;5.466;2023-12-20T02:28:28;13.23;;;2.90;;
9420;SDS011;4749;51.398;5.466;2023-12-20T02:30:56;11.27;;;3.00;;
9420;SDS011;4749;51.398;5.466;2023-12-20T02:33:24;15.90;;;2.70;;
9420;SDS011;4749;51.398;5.466;2023-12-20T02:35:51;15.40;;;3.20;;
9420;SDS011;4749;51.398;5.466;2023-12-20T02:38:19;15.50;;;3.47;;
9420;SDS011;4749;51.398;5.466;2023-12-20T02:40:46;16.93;;;3.83;;
9420;SDS011;4749;51.398;5.466;2023-12-20T02:43:15;15.30;;;3.70;;
9420;SDS011;4749;51.398;5.466;2023-12-20T02:45:43;17.27;;;3.10;;
9420;SDS011;4749;51.398;5.466;2023-12-20T02:48:10;19.07;;;3.60;;
9420;SDS011;4749;51.398;5.466;2023-12-20T02:50:37;16.07;;;3.03;;
9420;SDS011;4749;51.398;5.466;2023-12-20T02:53:04;12.77;;;3.93;;
9420;SDS011;4749;51.398;5.466;2023-12-20T02:55:32;16.87;;;4.00;;
9420;SDS011;4749;51.398;5.466;2023-12-20T02:57:59;12.43;;;3.67;;
9420;SDS011;4749;51.398;5.466;2023-12-20T03:00:26;13.23;;;3.87;;
9420;SDS011;4749;51.398;5.466;2023-12-20T03:02:53;17.73;;;4.00;;
9420;SDS011;4749;51.398;5.466;2023-12-20T03:05:20;23.63;;;4.00;;
9420;SDS011;4749;51.398;5.466;2023-12-20T03:07:47;17.40;;;4.20;;
9420;SDS011;4749;51.398;5.466;2023-12-20T03:10:14;14.67;;;4.87;;
9420;SDS011;4749;51.398;5.466;2023-12-20T03:12:52;16.50;;;5.00;;
9420;SDS011;4749;51.398;5.466;2023-12-20T03:15:19;22.10;;;4.93;;
9420;SDS011;4749;51.398;5.466;2023-12-20T03:17:46;22.30;;;4.63;;
9420;SDS011;4749;51.398;5.466;2023-12-20T03:20:13;20.17;;;4.97;;
9420;SDS011;4749;51.398;5.466;2023-12-20T03:22:41;17.77;;;4.90;;
9420;SDS011;4749;51.398;5.466;2023-12-20T03:25:08;15.77;;;5.83;;
9420;SDS011;4749;51.398;5.466;2023-12-20T03:27:38;20.03;;;4.60;;
9420;SDS011;4749;51.398;5.466;2023-12-20T03:30:06;17.73;;;4.83;;
9420;SDS011;4749;51.398;5.466;2023-12-20T03:32:34;17.80;;;5.67;;
9420;SDS011;4749;51.398;5.466;2023-12-20T03:35:01;19.77;;;4.80;;
9420;SDS011;4749;51.398;5.466;2023-12-20T03:37:28;14.87;;;4.87;;
9420;SDS011;4749;51.398;5.466;2023-12-20T03:39:55;16.50;;;4.80;;
9420;SDS011;4749;51.398;5.466;2023-12-20T03:42:22;12.10;;;4.63;;
9420;SDS011;4749;51.398;5.466;2023-12-20T03:44:49;16.40;;;5.23;;
9420;SDS011;4749;51.398;5.466;2023-12-20T03:47:17;21.47;;;5.67;;
9420;SDS011;4749;51.398;5.466;2023-12-20T03:49:44;19.63;;;5.50;;
9420;SDS011;4749;51.398;5.466;2023-12-20T03:52:11;21.20;;;5.93;;
9420;SDS011;4749;51.398;5.466;2023-12-20T03:54:38;19.80;;;5.63;;
9420;SDS011;4749;51.398;5.466;2023-12-20T03:57:08;25.37;;;5.97;;
9420;SDS011;4749;51.398;5.466;2023-12-20T03:59:35;21.10;;;6.37;;
9420;SDS011;4749;51.398;5.466;2023-12-20T04:02:04;21.50;;;5.63;;
9420;SDS011;4749;51.398;5.466;2023-12-20T04:04:31;22.80;;;5.70;;
9420;SDS011;4749;51.398;5.466;2023-12-20T04:06:58;17.47;;;5.47;;
9420;SDS011;4749;51.398;5.466;2023-12-20T04:09:26;21.00;;;5.53;;
9420;SDS011;4749;51.398;5.466;2023-12-20T04:11:53;28.37;;;6.73;;
9420;SDS011;4749;51.398;5.466;2023-12-20T04:14:20;18.10;;;4.97;;
9420;SDS011;4749;51.398;5.466;2023-12-20T04:16:47;25.07;;;5.37;;
9420;SDS011;4749;51.398;5.466;2023-12-20T04:19:14;21.77;;;5.50;;
9420;SDS011;4749;51.398;5.466;2023-12-20T04:21:41;23.67;;;5.37;;
9420;SDS011;4749;51.398;5.466;2023-12-20T04:24:08;15.83;;;5.10;;
9420;SDS011;4749;51.398;5.466;2023-12-20T04:26:35;17.43;;;5.07;;
9420;SDS011;4749;51.398;5.466;2023-12-20T04:29:02;22.13;;;5.60;;
9420;SDS011;4749;51.398;5.466;2023-12-20T04:31:30;19.50;;;4.83;;
9420;SDS011;4749;51.398;5.466;2023-12-20T04:33:57;23.37;;;5.37;;
9420;SDS011;4749;51.398;5.466;2023-12-20T04:36:24;20.20;;;5.37;;
9420;SDS011;4749;51.398;5.466;2023-12-20T04:38:56;23.87;;;5.07;;
9420;SDS011;4749;51.398;5.466;2023-12-20T04:41:23;24.20;;;6.07;;
9420;SDS011;4749;51.398;5.466;2023-12-20T04:43:50;19.33;;;4.93;;
9420;SDS011;4749;51.398;5.466;2023-12-20T04:46:17;21.63;;;5.00;;
9420;SDS011;4749;51.398;5.466;2023-12-20T04:48:44;17.23;;;5.60;;
9420;SDS011;4749;51.398;5.466;2023-12-20T04:51:12;16.70;;;4.87;;
9420;SDS011;4749;51.398;5.466;2023-12-20T04:53:39;23.97;;;6.13;;
9420;SDS011;4749;51.398;5.466;2023-12-20T04:56:06;18.80;;;5.63;;
9420;SDS011;4749;51.398;5.466;2023-12-20T04:58:33;21.47;;;5.63;;
9420;SDS011;4749;51.398;5.466;2023-12-20T05:01:01;21.37;;;5.83;;
9420;SDS011;4749;51.398;5.466;2023-12-20T05:03:30;19.53;;;5.70;;
9420;SDS011;4749;51.398;5.466;2023-12-20T05:05:57;22.67;;;5.60;;
9420;SDS011;4749;51.398;5.466;2023-12-20T05:08:24;23.60;;;5.67;;
9420;SDS011;4749;51.398;5.466;2023-12-20T05:10:53;23.30;;;5.13;;
9420;SDS011;4749;51.398;5.466;2023-12-20T05:13:21;19.30;;;5.03;;
9420;SDS011;4749;51.398;5.466;2023-12-20T05:15:51;14.03;;;4.90;;
9420;SDS011;4749;51.398;5.466;2023-12-20T05:18:20;22.27;;;5.60;;
9420;SDS011;4749;51.398;5.466;2023-12-20T05:20:48;17.67;;;4.60;;
9420;SDS011;4749;51.398;5.466;2023-12-20T05:23:16;19.13;;;4.80;;
9420;SDS011;4749;51.398;5.466;2023-12-20T05:25:44;21.43;;;5.77;;
9420;SDS011;4749;51.398;5.466;2023-12-20T05:28:11;19.33;;;5.03;;
9420;SDS011;4749;51.398;5.466;2023-12-20T05:30:38;27.33;;;6.30;;
9420;SDS011;4749;51.398;5.466;2023-12-20T05:33:05;22.10;;;5.03;;
9420;SDS011;4749;51.398;5.466;2023-12-20T05:35:32;22.53;;;5.33;;
9420;SDS011;4749;51.398;5.466;2023-12-20T05:37:59;25.03;;;5.63;;
9420;SDS011;4749;51.398;5.466;2023-12-20T05:40:26;22.60;;;5.20;;
9420;SDS011;4749;51.398;5.466;2023-12-20T05:42:53;26.20;;;5.50;;
9420;SDS011;4749;51.398;5.466;2023-12-20T05:45:20;18.17;;;4.90;;
9420;SDS011;4749;51.398;5.466;2023-12-20T05:47:48;23.50;;;5.03;;
9420;SDS011;4749;51.398;5.466;2023-12-20T05:50:15;25.27;;;4.97;;
9420;SDS011;4749;51.398;5.466;2023-12-20T05:52:42;20.27;;;5.30;;
9420;SDS011;4749;51.398;5.466;2023-12-20T05:55:09;20.83;;;5.33;;
9420;SDS011;4749;51.398;5.466;2023-12-20T05:57:36;22.70;;;5.00;;
9420;SDS011;4749;51.398;5.466;2023-12-20T06:00:03;19.33;;;5.50;;
9420;SDS011;4749;51.398;5.466;2023-12-20T06:02:32;21.40;;;4.53;;
9420;SDS011;4749;51.398;5.466;2023-12-20T06:04:59;20.73;;;4.70;;
9420;SDS011;4749;51.398;5.466;2023-12-20T06:07:26;20.40;;;5.10;;
9420;SDS011;4749;51.398;5.466;2023-12-20T06:09:54;18.43;;;4.43;;
9420;SDS011;4749;51.398;5.466;2023-12-20T06:12:21;17.80;;;4.47;;
9420;SDS011;4749;51.398;5.466;2023-12-20T06:14:48;22.17;;;4.10;;
9420;SDS011;4749;51.398;5.466;2023-12-20T06:17:15;19.67;;;4.87;;
9420;SDS011;4749;51.398;5.466;2023-12-20T06:19:43;22.03;;;3.93;;
9420;SDS011;4749;51.398;5.466;2023-12-20T06:22:11;27.80;;;4.43;;
9420;SDS011;4749;51.398;5.466;2023-12-20T06:24:38;21.13;;;4.23;;
9420;SDS011;4749;51.398;5.466;2023-12-20T06:27:05;18.13;;;4.10;;
9420;SDS011;4749;51.398;5.466;2023-12-20T06:29:33;18.33;;;4.37;;
9420;SDS011;4749;51.398;5.466;2023-12-20T06:32:01;20.37;;;4.43;;
9420;SDS011;4749;51.398;5.466;2023-12-20T06:34:28;23.80;;;5.07;;
9420;SDS011;4749;51.398;5.466;2023-12-20T06:36:55;23.80;;;4.57;;
9420;SDS011;4749;51.398;5.466;2023-12-20T06:39:22;23.57;;;4.90;;
9420;SDS011;4749;51.398;5.466;2023-12-20T06:41:50;17.53;;;5.77;;
9420;SDS011;4749;51.398;5.466;2023-12-20T06:44:17;24.33;;;5.23;;
9420;SDS011;4749;51.398;5.466;2023-12-20T06:46:45;22.60;;;4.90;;
9420;SDS011;4749;51.398;5.466;2023-12-20T06:49:12;20.77;;;4.60;;
9420;SDS011;4749;51.398;5.466;2023-12-20T06:51:39;25.20;;;4.80;;
9420;SDS011;4749;51.398;5.466;2023-12-20T06:54:06;21.67;;;4.60;;
9420;SDS011;4749;51.398;5.466;2023-12-20T06:56:33;21.73;;;4.53;;
9420;SDS011;4749;51.398;5.466;2023-12-20T06:59:00;21.07;;;4.40;;
9420;SDS011;4749;51.398;5.466;2023-12-20T07:01:27;17.00;;;4.20;;
9420;SDS011;4749;51.398;5.466;2023-12-20T07:03:55;21.13;;;4.70;;
9420;SDS011;4749;51.398;5.466;2023-12-20T07:06:22;17.70;;;4.30;;
9420;SDS011;4749;51.398;5.466;2023-12-20T07:08:52;27.53;;;5.10;;
9420;SDS011;4749;51.398;5.466;2023-12-20T07:11:19;23.03;;;4.90;;
9420;SDS011;4749;51.398;5.466;2023-12-20T07:13:46;19.87;;;4.23;;
9420;SDS011;4749;51.398;5.466;2023-12-20T07:16:13;22.60;;;5.23;;
9420;SDS011;4749;51.398;5.466;2023-12-20T07:18:40;24.37;;;4.57;;
9420;SDS011;4749;51.398;5.466;2023-12-20T07:21:08;22.90;;;4.73;;
9420;SDS011;4749;51.398;5.466;2023-12-20T07:23:35;20.83;;;4.13;;
9420;SDS011;4749;51.398;5.466;2023-12-20T07:26:02;16.83;;;3.50;;
9420;SDS011;4749;51.398;5.466;2023-12-20T07:28:30;19.90;;;4.77;;
9420;SDS011;4749;51.398;5.466;2023-12-20T07:30:57;20.80;;;4.63;;
9420;SDS011;4749;51.398;5.466;2023-12-20T07:33:24;18.03;;;3.97;;
9420;SDS011;4749;51.398;5.466;2023-12-20T07:35:52;25.83;;;4.97;;
9420;SDS011;4749;51.398;5.466;2023-12-20T07:38:19;19.40;;;4.87;;
9420;SDS011;4749;51.398;5.466;2023-12-20T07:40:46;15.13;;;4.17;;
9420;SDS011;4749;51.398;5.466;2023-12-20T07:43:13;18.30;;;4.23;;
9420;SDS011;4749;51.398;5.466;2023-12-20T07:45:40;17.87;;;3.80;;
9420;SDS011;4749;51.398;5.466;2023-12-20T07:48:08;23.83;;;4.50;;
9420;SDS011;4749;51.398;5.466;2023-12-20T07:50:35;18.53;;;4.70;;
9420;SDS011;4749;51.398;5.466;2023-12-20T07:53:02;17.70;;;3.77;;
9420;SDS011;4749;51.398;5.466;2023-12-20T07:55:29;19.83;;;4.50;;
9420;SDS011;4749;51.398;5.466;2023-12-20T07:57:57;21.77;;;4.03;;
9420;SDS011;4749;51.398;5.466;2023-12-20T08:00:26;24.17;;;4.70;;
9420;SDS011;4749;51.398;5.466;2023-12-20T08:02:53;20.97;;;4.60;;
9420;SDS011;4749;51.398;5.466;2023-12-20T08:05:20;14.10;;;4.23;;
9420;SDS011;4749;51.398;5.466;2023-12-20T08:07:47;19.77;;;3.87;;
9420;SDS011;4749;51.398;5.466;2023-12-20T08:10:14;16.97;;;3.83;;
9420;SDS011;4749;51.398;5.466;2023-12-20T08:12:42;27.93;;;6.03;;
9420;SDS011;4749;51.398;5.466;2023-12-20T08:15:10;19.73;;;4.37;;
9420;SDS011;4749;51.398;5.466;2023-12-20T08:17:37;14.03;;;4.03;;
9420;SDS011;4749;51.398;5.466;2023-12-20T08:20:04;17.03;;;4.37;;
9420;SDS011;4749;51.398;5.466;2023-12-20T08:22:33;16.80;;;4.40;;
9420;SDS011;4749;51.398;5.466;2023-12-20T08:25:00;20.17;;;4.03;;
9420;SDS011;4749;51.398;5.466;2023-12-20T08:27:28;14.73;;;4.23;;
9420;SDS011;4749;51.398;5.466;2023-12-20T08:29:55;15.80;;;3.93;;
9420;SDS011;4749;51.398;5.466;2023-12-20T08:32:24;18.07;;;4.73;;
9420;SDS011;4749;51.398;5.466;2023-12-20T08:34:52;16.43;;;4.47;;
9420;SDS011;4749;51.398;5.466;2023-12-20T08:37:20;17.40;;;3.77;;
9420;SDS011;4749;51.398;5.466;2023-12-20T08:39:47;16.50;;;3.83;;
9420;SDS011;4749;51.398;5.466;2023-12-20T08:42:14;17.93;;;4.00;;
9420;SDS011;4749;51.398;5.466;2023-12-20T08:44:41;17.70;;;4.43;;
9420;SDS011;4749;51.398;5.466;2023-12-20T08:47:08;23.33;;;4.30;;
9420;SDS011;4749;51.398;5.466;2023-12-20T08:49:42;15.47;;;3.93;;
9420;SDS011;4749;51.398;5.466;2023-12-20T08:52:10;22.53;;;3.93;;
9420;SDS011;4749;51.398;5.466;2023-12-20T08:54:37;16.27;;;3.73;;
9420;SDS011;4749;51.398;5.466;2023-12-20T08:57:04;20.70;;;4.10;;
9420;SDS011;4749;51.398;5.466;2023-12-20T08:59:33;15.50;;;3.40;;
9420;SDS011;4749;51.398;5.466;2023-12-20T09:02:00;16.07;;;3.27;;
9420;SDS011;4749;51.398;5.466;2023-12-20T09:04:27;15.73;;;3.90;;
9420;SDS011;4749;51.398;5.466;2023-12-20T09:06:55;15.70;;;3.40;;
9420;SDS011;4749;51.398;5.466;2023-12-20T09:09:27;17.00;;;3.40;;
9420;SDS011;4749;51.398;5.466;2023-12-20T09:11:54;16.93;;;4.00;;
9420;SDS011;4749;51.398;5.466;2023-12-20T09:14:22;18.27;;;3.80;;
9420;SDS011;4749;51.398;5.466;2023-12-20T09:16:49;18.20;;;3.87;;
9420;SDS011;4749;51.398;5.466;2023-12-20T09:19:17;15.43;;;3.23;;
9420;SDS011;4749;51.398;5.466;2023-12-20T09:21:45;12.20;;;3.13;;
9420;SDS011;4749;51.398;5.466;2023-12-20T09:24:12;12.73;;;3.00;;
9420;SDS011;4749;51.398;5.466;2023-12-20T09:26:39;17.73;;;3.33;;
9420;SDS011;4749;51.398;5.466;2023-12-20T09:29:06;18.17;;;3.17;;
9420;SDS011;4749;51.398;5.466;2023-12-20T09:31:36;14.03;;;3.37;;
9420;SDS011;4749;51.398;5.466;2023-12-20T09:34:03;15.53;;;3.30;;
9420;SDS011;4749;51.398;5.466;2023-12-20T09:36:30;16.07;;;3.43;;
9420;SDS011;4749;51.398;5.466;2023-12-20T09:39:02;17.47;;;3.60;;
9420;SDS011;4749;51.398;5.466;2023-12-20T09:41:30;14.77;;;4.10;;
9420;SDS011;4749;51.398;5.466;2023-12-20T09:44:00;20.67;;;4.73;;
9420;SDS011;4749;51.398;5.466;2023-12-20T09:46:29;13.43;;;3.80;;
9420;SDS011;4749;51.398;5.466;2023-12-20T09:49:01;16.43;;;4.23;;
9420;SDS011;4749;51.398;5.466;2023-12-20T09:51:29;14.93;;;4.00;;
9420;SDS011;4749;51.398;5.466;2023-12-20T09:53:57;17.73;;;4.20;;
9420;SDS011;4749;51.398;5.466;2023-12-20T09:56:25;17.23;;;4.60;;
9420;SDS011;4749;51.398;5.466;2023-12-20T09:58:52;14.80;;;4.00;;
9420;SDS011;4749;51.398;5.466;2023-12-20T10:01:21;15.63;;;3.60;;
9420;SDS011;4749;51.398;5.466;2023-12-20T10:03:50;18.33;;;4.43;;
9420;SDS011;4749;51.398;5.466;2023-12-20T10:06:21;18.83;;;4.30;;
9420;SDS011;4749;51.398;5.466;2023-12-20T10:08:49;10.20;;;3.40;;
9420;SDS011;4749;51.398;5.466;2023-12-20T10:11:16;18.57;;;4.07;;
9420;SDS011;4749;51.398;5.466;2023-12-20T10:13:43;21.37;;;3.67;;
9420;SDS011;4749;51.398;5.466;2023-12-20T10:16:11;18.37;;;4.07;;
9420;SDS011;4749;51.398;5.466;2023-12-20T10:18:38;15.27;;;3.20;;
9420;SDS011;4749;51.398;5.466;2023-12-20T10:21:06;15.33;;;3.40;;
9420;SDS011;4749;51.398;5.466;2023-12-20T10:23:36;16.57;;;4.30;;
9420;SDS011;4749;51.398;5.466;2023-12-20T10:26:05;17.73;;;3.83;;
9420;SDS011;4749;51.398;5.466;2023-12-20T10:28:33;14.03;;;3.90;;
9420;SDS011;4749;51.398;5.466;2023-12-20T10:31:02;19.50;;;4.00;;
9420;SDS011;4749;51.398;5.466;2023-12-20T10:33:30;21.43;;;4.13;;
9420;SDS011;4749;51.398;5.466;2023-12-20T10:36:01;9.57;;;3.50;;
9420;SDS011;4749;51.398;5.466;2023-12-20T10:38:29;14.50;;;3.30;;
9420;SDS011;4749;51.398;5.466;2023-12-20T10:40:57;14.83;;;3.47;;
9420;SDS011;4749;51.398;5.466;2023-12-20T10:43:28;17.83;;;3.37;;
9420;SDS011;4749;51.398;5.466;2023-12-20T10:45:57;12.30;;;3.73;;
9420;SDS011;4749;51.398;5.466;2023-12-20T10:48:25;13.20;;;3.70;;
9420;SDS011;4749;51.398;5.466;2023-12-20T10:50:57;14.47;;;3.23;;
9420;SDS011;4749;51.398;5.466;2023-12-20T10:53:24;17.93;;;3.97;;
9420;SDS011;4749;51.398;5.466;2023-12-20T10:55:52;16.00;;;3.40;;
9420;SDS011;4749;51.398;5.466;2023-12-20T10:58:25;16.97;;;3.60;;
9420;SDS011;4749;51.398;5.466;2023-12-20T11:01:00;14.87;;;3.40;;
9420;SDS011;4749;51.398;5.466;2023-12-20T11:03:34;18.07;;;3.77;;
9420;SDS011;4749;51.398;5.466;2023-12-20T11:06:10;18.87;;;3.87;;
9420;SDS011;4749;51.398;5.466;2023-12-20T11:08:49;15.17;;;4.17;;
9420;SDS011;4749;51.398;5.466;2023-12-20T11:11:42;20.43;;;4.00;;
9420;SDS011;4749;51.398;5.466;2023-12-20T11:14:41;15.77;;;4.13;;
9420;SDS011;4749;51.398;5.466;2023-12-20T11:17:14;15.77;;;3.80;;
9420;SDS011;4749;51.398;5.466;2023-12-20T11:20:03;21.40;;;3.50;;
9420;SDS011;4749;51.398;5.466;2023-12-20T11:22:32;13.13;;;3.80;;
9420;SDS011;4749;51.398;5.466;2023-12-20T11:25:07;27.27;;;3.83;;
9420;SDS011;4749;51.398;5.466;2023-12-20T11:27:40;13.63;;;3.50;;
9420;SDS011;4749;51.398;5.466;2023-12-20T11:30:10;14.30;;;3.27;;
9420;SDS011;4749;51.398;5.466;2023-12-20T11:32:40;21.90;;;4.50;;
9420;SDS011;4749;51.398;5.466;2023-12-20T11:37:35;24.00;;;4.80;;
9420;SDS011;4749;51.398;5.466;2023-12-20T11:40:05;19.53;;;4.30;;
9420;SDS011;4749;51.398;5.466;2023-12-20T11:42:38;22.93;;;3.83;;
9420;SDS011;4749;51.398;5.466;2023-12-20T11:45:17;20.53;;;4.60;;
9420;SDS011;4749;51.398;5.466;2023-12-20T11:47:48;16.40;;;3.97;;
9420;SDS011;4749;51.398;5.466;2023-12-20T11:50:18;19.20;;;4.17;;
9420;SDS011;4749;51.398;5.466;2023-12-20T11:52:46;18.13;;;4.23;;
9420;SDS011;4749;51.398;5.466;2023-12-20T11:55:14;15.27;;;3.83;;
9420;SDS011;4749;51.398;5.466;2023-12-20T11:57:42;17.57;;;4.23;;
9420;SDS011;4749;51.398;5.466;2023-12-20T12:00:12;18.30;;;3.67;;
9420;SDS011;4749;51.398;5.466;2023-12-20T12:02:41;18.10;;;4.03;;
9420;SDS011;4749;51.398;5.466;2023-12-20T12:05:09;17.90;;;3.60;;
9420;SDS011;4749;51.398;5.466;2023-12-20T12:07:37;19.93;;;3.40;;
9420;SDS011;4749;51.398;5.466;2023-12-20T12:10:04;21.03;;;4.70;;
9420;SDS011;4749;51.398;5.466;2023-12-20T12:12:32;14.57;;;4.50;;
9420;SDS011;4749;51.398;5.466;2023-12-20T12:14:59;11.77;;;3.63;;
9420;SDS011;4749;51.398;5.466;2023-12-20T12:17:27;18.67;;;4.57;;
9420;SDS011;4749;51.398;5.466;2023-12-20T12:20:01;23.33;;;5.50;;
9420;SDS011;4749;51.398;5.466;2023-12-20T12:22:31;13.40;;;4.20;;
9420;SDS011;4749;51.398;5.466;2023-12-20T12:24:59;23.63;;;4.73;;
9420;SDS011;4749;51.398;5.466;2023-12-20T12:27:40;18.47;;;4.87;;
9420;SDS011;4749;51.398;5.466;2023-12-20T12:30:09;18.97;;;4.60;;
9420;SDS011;4749;51.398;5.466;2023-12-20T12:32:38;21.13;;;4.60;;
9420;SDS011;4749;51.398;5.466;2023-12-20T12:35:07;15.10;;;4.97;;
9420;SDS011;4749;51.398;5.466;2023-12-20T12:37:39;16.70;;;4.43;;
9420;SDS011;4749;51.398;5.466;2023-12-20T12:40:11;15.20;;;4.10;;
9420;SDS011;4749;51.398;5.466;2023-12-20T12:42:40;14.20;;;4.47;;
9420;SDS011;4749;51.398;5.466;2023-12-20T12:45:11;14.83;;;4.23;;
9420;SDS011;4749;51.398;5.466;2023-12-20T12:47:38;19.10;;;4.93;;
9420;SDS011;4749;51.398;5.466;2023-12-20T12:50:06;19.57;;;5.50;;
9420;SDS011;4749;51.398;5.466;2023-12-20T12:52:35;16.60;;;5.03;;
9420;SDS011;4749;51.398;5.466;2023-12-20T12:55:02;15.47;;;5.50;;
9420;SDS011;4749;51.398;5.466;2023-12-20T12:57:31;14.47;;;5.70;;
9420;SDS011;4749;51.398;5.466;2023-12-20T13:00:00;21.47;;;5.83;;
9420;SDS011;4749;51.398;5.466;2023-12-20T13:02:29;14.30;;;5.90;;
9420;SDS011;4749;51.398;5.466;2023-12-20T13:04:57;21.13;;;6.30;;
9420;SDS011;4749;51.398;5.466;2023-12-20T13:07:25;14.03;;;6.23;;
9420;SDS011;4749;51.398;5.466;2023-12-20T13:09:53;16.17;;;5.53;;
9420;SDS011;4749;51.398;5.466;2023-12-20T13:12:20;18.33;;;5.80;;
9420;SDS011;4749;51.398;5.466;2023-12-20T13:14:47;16.63;;;5.70;;
9420;SDS011;4749;51.398;5.466;2023-12-20T13:17:15;17.17;;;6.00;;
9420;SDS011;4749;51.398;5.466;2023-12-20T13:19:42;15.07;;;5.13;;
9420;SDS011;4749;51.398;5.466;2023-12-20T13:22:10;15.73;;;5.07;;
9420;SDS011;4749;51.398;5.466;2023-12-20T13:24:37;17.17;;;6.10;;
9420;SDS011;4749;51.398;5.466;2023-12-20T13:27:05;14.17;;;5.10;;
9420;SDS011;4749;51.398;5.466;2023-12-20T13:29:32;15.73;;;5.40;;
9420;SDS011;4749;51.398;5.466;2023-12-20T13:32:01;23.43;;;5.30;;
9420;SDS011;4749;51.398;5.466;2023-12-20T13:34:30;16.63;;;5.83;;
9420;SDS011;4749;51.398;5.466;2023-12-20T13:36:57;14.67;;;5.20;;
9420;SDS011;4749;51.398;5.466;2023-12-20T13:39:25;21.40;;;5.93;;
9420;SDS011;4749;51.398;5.466;2023-12-20T13:41:52;12.83;;;4.97;;
9420;SDS011;4749;51.398;5.466;2023-12-20T13:44:19;13.93;;;5.03;;
9420;SDS011;4749;51.398;5.466;2023-12-20T13:46:46;18.70;;;5.73;;
9420;SDS011;4749;51.398;5.466;2023-12-20T13:49:16;17.23;;;5.93;;
9420;SDS011;4749;51.398;5.466;2023-12-20T13:51:43;20.77;;;5.00;;
9420;SDS011;4749;51.398;5.466;2023-12-20T13:54:10;17.37;;;5.37;;
9420;SDS011;4749;51.398;5.466;2023-12-20T13:56:37;22.27;;;6.00;;
9420;SDS011;4749;51.398;5.466;2023-12-20T13:59:21;19.87;;;4.83;;
9420;SDS011;4749;51.398;5.466;2023-12-20T14:01:48;15.10;;;5.00;;
9420;SDS011;4749;51.398;5.466;2023-12-20T14:04:16;15.03;;;4.23;;
9420;SDS011;4749;51.398;5.466;2023-12-20T14:07:04;12.80;;;4.13;;
9420;SDS011;4749;51.398;5.466;2023-12-20T14:09:32;15.23;;;4.60;;
9420;SDS011;4749;51.398;5.466;2023-12-20T14:11:59;16.53;;;4.20;;
9420;SDS011;4749;51.398;5.466;2023-12-20T14:14:26;15.33;;;4.40;;
9420;SDS011;4749;51.398;5.466;2023-12-20T14:16:53;13.47;;;4.77;;
9420;SDS011;4749;51.398;5.466;2023-12-20T14:19:20;19.30;;;4.73;;
9420;SDS011;4749;51.398;5.466;2023-12-20T14:21:47;13.90;;;4.13;;
9420;SDS011;4749;51.398;5.466;2023-12-20T14:24:14;15.63;;;5.30;;
9420;SDS011;4749;51.398;5.466;2023-12-20T14:26:42;17.87;;;4.90;;
9420;SDS011;4749;51.398;5.466;2023-12-20T14:29:09;14.97;;;4.70;;
9420;SDS011;4749;51.398;5.466;2023-12-20T14:31:36;18.73;;;4.93;;
9420;SDS011;4749;51.398;5.466;2023-12-20T14:34:05;18.13;;;4.77;;
9420;SDS011;4749;51.398;5.466;2023-12-20T14:36:34;15.37;;;4.70;;
9420;SDS011;4749;51.398;5.466;2023-12-20T14:39:01;15.90;;;4.47;;
9420;SDS011;4749;51.398;5.466;2023-12-20T14:41:30;21.20;;;4.63;;
9420;SDS011;4749;51.398;5.466;2023-12-20T14:43:58;15.80;;;3.90;;
9420;SDS011;4749;51.398;5.466;2023-12-20T14:46:26;16.20;;;3.93;;
9420;SDS011;4749;51.398;5.466;2023-12-20T14:48:55;15.17;;;3.97;;
9420;SDS011;4749;51.398;5.466;2023-12-20T14:51:22;17.93;;;4.20;;
9420;SDS011;4749;51.398;5.466;2023-12-20T14:53:50;14.80;;;3.97;;
9420;SDS011;4749;51.398;5.466;2023-12-20T14:56:17;16.70;;;4.53;;
9420;SDS011;4749;51.398;5.466;2023-12-20T14:58:44;19.20;;;4.53;;
9420;SDS011;4749;51.398;5.466;2023-12-20T15:01:11;13.90;;;3.70;;
9420;SDS011;4749;51.398;5.466;2023-12-20T15:03:38;20.80;;;4.40;;
9420;SDS011;4749;51.398;5.466;2023-12-20T15:06:06;13.33;;;4.10;;
9420;SDS011;4749;51.398;5.466;2023-12-20T15:08:38;17.17;;;4.17;;